createdAt,value
2019-01-09T00:01:08.741Z,99653.14
2019-01-09T00:03:38.285Z,99659.66
2019-01-09T00:06:07.877Z,99606.80
2019-01-09T00:08:37.658Z,99666.47
2019-01-09T00:11:07.555Z,99673.02
2019-01-09T00:13:37.674Z,99664.20
2019-01-09T00:16:07.221Z,99662.17
2019-01-09T00:18:36.737Z,99664.27
2019-01-09T00:21:06.294Z,99671.70
2019-01-09T00:23:36.259Z,99672.55
2019-01-09T00:26:05.816Z,99670.83
2019-01-09T00:28:35.364Z,99671.31
2019-01-09T00:31:05.492Z,99669.55
2019-01-09T00:33:35.076Z,99660.31
2019-01-09T00:36:04.859Z,99675.84
2019-01-09T00:38:34.358Z,99671.13
2019-01-09T00:41:04.366Z,99674.58
2019-01-09T00:43:34.232Z,99669.95
2019-01-09T00:46:04.225Z,99674.36
2019-01-09T00:48:34.170Z,99672.48
2019-01-09T00:51:04.530Z,99681.52
2019-01-09T00:53:34.479Z,99682.70
2019-01-09T00:56:04.291Z,99695.94
2019-01-09T00:58:34.431Z,99691.64
2019-01-09T01:01:04.556Z,99693.28
2019-01-09T01:04:22.662Z,99695.94
2019-01-09T01:07:24.979Z,99701.87
2019-01-09T01:10:49.779Z,99699.30
2019-01-09T01:13:49.749Z,99707.08
2019-01-09T01:16:47.443Z,99713.19
2019-01-09T01:19:50.476Z,99715.62
2019-01-09T01:22:52.741Z,99718.13
2019-01-09T01:25:56.613Z,99711.24
2019-01-09T01:29:07.799Z,99730.27
2019-01-09T01:32:11.719Z,99720.69
2019-01-09T01:35:38.067Z,99723.64
2019-01-09T01:38:30.856Z,99719.61
2019-01-09T01:41:09.025Z,99725.75
2019-01-09T01:43:55.526Z,99729.35
2019-01-09T01:46:47.845Z,99750.52
2019-01-09T01:49:57.663Z,99748.52
2019-01-09T01:52:44.668Z,99745.00
2019-01-09T01:55:41.173Z,99741.31
2019-01-09T01:58:50.737Z,99744.70
2019-01-09T02:01:53.710Z,99752.24
2019-01-09T02:04:59.424Z,99752.40
2019-01-09T02:07:57.691Z,99758.77
2019-01-09T02:10:55.071Z,99761.83
2019-01-09T02:13:33.274Z,99763.13
2019-01-09T02:16:37.811Z,99765.66
2019-01-09T02:19:13.119Z,99764.78
2019-01-09T02:22:01.712Z,99773.03
2019-01-09T02:24:53.280Z,99772.60
2019-01-09T02:27:48.115Z,99775.59
2019-01-09T02:30:49.535Z,99772.19
2019-01-09T02:33:19.442Z,99778.59
2019-01-09T02:35:48.940Z,99783.61
2019-01-09T02:38:18.447Z,99786.14
2019-01-09T02:40:47.934Z,99785.33
2019-01-09T02:43:17.414Z,99778.85
2019-01-09T02:45:47.424Z,99789.13
2019-01-09T02:48:16.918Z,99789.94
2019-01-09T02:50:46.422Z,99790.44
2019-01-09T02:53:15.896Z,99789.13
2019-01-09T02:55:45.809Z,99791.70
2019-01-09T02:58:15.585Z,99796.95
2019-01-09T03:00:45.175Z,99734.14
2019-01-09T03:03:14.949Z,99803.28
2019-01-09T03:05:44.505Z,99793.39
2019-01-09T03:08:13.984Z,99797.30
2019-01-09T03:10:43.466Z,99795.95
2019-01-09T03:13:12.960Z,99804.93
2019-01-09T03:15:42.825Z,99801.36
2019-01-09T03:18:12.585Z,99789.59
2019-01-09T03:20:42.062Z,99800.86
2019-01-09T03:23:11.694Z,99810.09
2019-01-09T03:25:42.010Z,99806.08
2019-01-09T03:28:11.720Z,99800.94
2019-01-09T03:30:41.673Z,99809.67
2019-01-09T03:33:11.699Z,99816.50
2019-01-09T03:35:42.026Z,99812.20
2019-01-09T03:38:11.658Z,99809.45
2019-01-09T03:40:41.661Z,99808.08
2019-01-09T03:43:12.014Z,99815.81
2019-01-09T03:45:41.943Z,99816.09
2019-01-09T03:48:11.879Z,99814.52
2019-01-09T03:50:41.707Z,99814.90
2019-01-09T03:53:13.186Z,99818.70
2019-01-09T03:55:42.904Z,99805.27
2019-01-09T03:58:12.407Z,99816.55
2019-01-09T04:00:41.871Z,99829.02
2019-01-09T04:03:11.756Z,99826.63
2019-01-09T04:05:41.856Z,99825.98
2019-01-09T04:08:12.023Z,99861.25
2019-01-09T04:10:42.044Z,99838.92
2019-01-09T04:13:11.748Z,99835.77
2019-01-09T04:15:41.795Z,99831.30
2019-01-09T04:18:12.093Z,99840.38
2019-01-09T04:20:41.773Z,99838.77
2019-01-09T04:23:12.063Z,99850.84
2019-01-09T04:25:41.804Z,99857.17
2019-01-09T04:28:11.780Z,99847.70
2019-01-09T04:30:41.816Z,99850.55
2019-01-09T04:33:11.808Z,99867.20
2019-01-09T04:35:41.864Z,99859.31
2019-01-09T04:38:11.793Z,99857.55
2019-01-09T04:40:42.099Z,99855.27
2019-01-09T04:43:12.414Z,99863.91
2019-01-09T04:45:42.244Z,99861.79
2019-01-09T04:48:12.168Z,99863.44
2019-01-09T04:50:42.224Z,99863.44
2019-01-09T04:53:12.062Z,99869.89
2019-01-09T04:55:42.438Z,99866.05
2019-01-09T04:58:12.117Z,99882.04
2019-01-09T05:00:42.046Z,99866.79
2019-01-09T05:03:12.066Z,99865.94
2019-01-09T05:05:41.934Z,99864.75
2019-01-09T05:08:11.917Z,99871.16
2019-01-09T05:10:41.892Z,99868.05
2019-01-09T05:13:12.115Z,99866.86
2019-01-09T05:15:41.980Z,99869.36
2019-01-09T05:18:11.969Z,99878.13
2019-01-09T05:20:42.942Z,99873.45
2019-01-09T05:23:12.760Z,99887.40
2019-01-09T05:25:42.252Z,99879.58
2019-01-09T05:28:12.001Z,99881.63
2019-01-09T05:30:42.275Z,99893.00
2019-01-09T05:33:11.979Z,99896.84
2019-01-09T05:35:42.519Z,99892.82
2019-01-09T05:38:12.298Z,99888.91
2019-01-09T05:40:42.333Z,99894.58
2019-01-09T05:43:12.386Z,99891.20
2019-01-09T05:45:41.984Z,99906.34
2019-01-09T05:48:12.000Z,99903.49
2019-01-09T05:50:42.030Z,99902.19
2019-01-09T05:53:12.285Z,99897.50
2019-01-09T05:55:42.214Z,99909.94
2019-01-09T05:58:12.057Z,99909.69
2019-01-09T06:00:42.001Z,99900.01
2019-01-09T06:03:12.362Z,99911.34
2019-01-09T06:05:42.078Z,99907.83
2019-01-09T06:08:12.070Z,99911.73
2019-01-09T06:10:42.364Z,99911.20
2019-01-09T06:13:12.086Z,99916.95
2019-01-09T06:15:42.261Z,99915.26
2019-01-09T06:18:12.517Z,99918.25
2019-01-09T06:20:42.391Z,99926.59
2019-01-09T06:23:12.098Z,99925.19
2019-01-09T06:25:42.854Z,99923.89
2019-01-09T06:28:12.339Z,99932.66
2019-01-09T06:30:42.112Z,99932.16
2019-01-09T06:33:12.292Z,99939.11
2019-01-09T06:35:42.491Z,99937.87
2019-01-09T06:38:12.170Z,99926.53
2019-01-09T06:40:42.439Z,99942.52
2019-01-09T06:43:12.425Z,99939.20
2019-01-09T06:45:42.150Z,99943.75
2019-01-09T06:48:12.223Z,99953.90
2019-01-09T06:50:42.462Z,99953.77
2019-01-09T06:53:12.407Z,99955.55
2019-01-09T06:55:42.191Z,99963.30
2019-01-09T06:58:12.750Z,99965.39
2019-01-09T07:00:42.543Z,99969.30
2019-01-09T07:03:12.472Z,99968.06
2019-01-09T07:05:42.251Z,99987.05
2019-01-09T07:08:12.451Z,99975.46
2019-01-09T07:10:42.282Z,99956.84
2019-01-09T07:13:12.513Z,99977.13
2019-01-09T07:15:42.561Z,99981.39
2019-01-09T07:18:12.257Z,99984.80
2019-01-09T07:20:42.581Z,99996.60
2019-01-09T07:23:12.307Z,99990.71
2019-01-09T07:25:42.577Z,99995.79
2019-01-09T07:28:12.272Z,99993.58
2019-01-09T07:30:42.898Z,99996.64
2019-01-09T07:33:12.422Z,99996.64
2019-01-09T07:35:42.339Z,99994.06
2019-01-09T07:38:12.329Z,100000.58
2019-01-09T07:40:42.674Z,100004.14
2019-01-09T07:43:12.402Z,100007.63
2019-01-09T07:45:42.599Z,100013.78
2019-01-09T07:48:12.355Z,100016.64
2019-01-09T07:50:43.225Z,100014.43
2019-01-09T07:53:12.919Z,100015.83
2019-01-09T07:55:42.409Z,100016.16
2019-01-09T07:58:12.414Z,100021.08
2019-01-09T08:00:42.694Z,100030.20
2019-01-09T08:03:12.456Z,100031.47
2019-01-09T08:05:42.461Z,100031.27
2019-01-09T08:08:12.618Z,100022.61
2019-01-09T08:10:42.462Z,100043.20
2019-01-09T08:13:12.802Z,100032.22
2019-01-09T08:15:43.390Z,100039.98
2019-01-09T08:18:13.167Z,100047.02
2019-01-09T08:20:42.943Z,100052.55
2019-01-09T08:23:12.462Z,100051.16
2019-01-09T08:25:42.528Z,100049.23
2019-01-09T08:28:12.995Z,100060.28
2019-01-09T08:30:42.549Z,100075.20
2019-01-09T08:33:12.666Z,100066.53
2019-01-09T08:35:42.813Z,100080.74
2019-01-09T08:38:12.563Z,100083.35
2019-01-09T08:40:43.567Z,100081.56
2019-01-09T08:43:13.635Z,100089.91
2019-01-09T08:45:43.151Z,100099.58
2019-01-09T08:48:12.666Z,100100.30
2019-01-09T08:50:43.121Z,100096.32
2019-01-09T08:53:12.618Z,100102.81
2019-01-09T08:55:42.715Z,100113.23
2019-01-09T08:58:12.597Z,100117.02
2019-01-09T09:00:42.577Z,100119.98
2019-01-09T09:03:12.604Z,100127.53
2019-01-09T09:05:42.792Z,100131.45
2019-01-09T09:08:13.200Z,100131.50
2019-01-09T09:10:42.697Z,100143.20
2019-01-09T09:13:25.587Z,100148.94
2019-01-09T09:15:55.083Z,100143.33
2019-01-09T09:18:24.730Z,100152.30
2019-01-09T09:20:54.245Z,100152.08
2019-01-09T09:23:23.749Z,100156.41
2019-01-09T09:25:53.225Z,100165.87
2019-01-09T09:28:23.017Z,100164.72
2019-01-09T09:30:52.532Z,100179.94
2019-01-09T09:33:22.302Z,100179.67
2019-01-09T09:35:51.779Z,100182.66
2019-01-09T09:38:21.293Z,100189.55
2019-01-09T09:40:50.780Z,100198.94
2019-01-09T09:43:20.364Z,100192.92
2019-01-09T09:45:49.871Z,100207.23
2019-01-09T09:48:19.477Z,100215.55
2019-01-09T09:50:48.965Z,100204.17
2019-01-09T09:53:18.436Z,100209.64
2019-01-09T09:55:48.157Z,100201.70
2019-01-09T09:58:17.642Z,100210.94
2019-01-09T10:00:47.148Z,100212.70
2019-01-09T10:03:16.648Z,100213.48
2019-01-09T10:05:46.874Z,100211.58
2019-01-09T10:08:16.348Z,100212.27
2019-01-09T10:10:46.150Z,100207.59
2019-01-09T10:13:15.998Z,100216.52
2019-01-09T10:15:45.520Z,100221.41
2019-01-09T10:18:15.016Z,100214.61
2019-01-09T10:20:44.505Z,100208.97
2019-01-09T10:23:14.311Z,100214.44
2019-01-09T10:25:43.815Z,100224.86
2019-01-09T10:28:14.008Z,100227.47
2019-01-09T10:30:43.589Z,100230.40
2019-01-09T10:33:13.135Z,100240.31
2019-01-09T10:35:43.012Z,100239.44
2019-01-09T10:38:12.765Z,100245.47
2019-01-09T10:40:42.894Z,100226.40
2019-01-09T10:43:12.784Z,100249.47
2019-01-09T10:45:42.761Z,100199.50
2019-01-09T10:48:13.460Z,100225.06
2019-01-09T10:50:43.174Z,100238.27
2019-01-09T10:53:13.299Z,100239.00
2019-01-09T10:55:42.767Z,100246.65
2019-01-09T10:58:12.851Z,100252.77
2019-01-09T11:00:42.892Z,100245.16
2019-01-09T11:03:12.848Z,100247.28
2019-01-09T11:05:42.796Z,100246.17
2019-01-09T11:08:13.034Z,100254.72
2019-01-09T11:10:43.078Z,100265.73
2019-01-09T11:13:13.223Z,100251.47
2019-01-09T11:15:43.039Z,100252.31
2019-01-09T11:18:13.440Z,100243.09
2019-01-09T11:20:43.400Z,100255.29
2019-01-09T11:23:13.237Z,100257.73
2019-01-09T11:25:43.072Z,100256.05
2019-01-09T11:28:13.242Z,100263.82
2019-01-09T11:30:43.107Z,100265.23
2019-01-09T11:33:13.004Z,100264.61
2019-01-09T11:35:43.465Z,100249.07
2019-01-09T11:38:13.152Z,100261.08
2019-01-09T11:40:43.650Z,100280.02
2019-01-09T11:43:13.184Z,100279.75
2019-01-09T11:45:43.443Z,100282.03
2019-01-09T11:48:14.401Z,100281.80
2019-01-09T11:50:44.270Z,100281.16
2019-01-09T11:53:13.900Z,100285.91
2019-01-09T11:55:43.408Z,100289.26
2019-01-09T11:58:13.603Z,100284.42
2019-01-09T12:00:43.597Z,100283.66
2019-01-09T12:03:13.435Z,100279.92
2019-01-09T12:05:43.762Z,100282.13
2019-01-09T12:08:13.480Z,100285.47
2019-01-09T12:10:43.543Z,100290.77
2019-01-09T12:13:13.935Z,100282.75
2019-01-09T12:15:43.673Z,100259.49
2019-01-09T12:18:13.619Z,100268.90
2019-01-09T12:20:43.653Z,100280.34
2019-01-09T12:23:13.852Z,100288.78
2019-01-09T12:25:43.910Z,100300.58
2019-01-09T12:28:13.782Z,100298.85
2019-01-09T12:30:43.786Z,100301.85
2019-01-09T12:33:13.883Z,100316.59
2019-01-09T12:35:43.902Z,100309.33
2019-01-09T12:38:13.927Z,100313.66
2019-01-09T12:40:44.217Z,100310.12
2019-01-09T12:43:14.022Z,100320.58
2019-01-09T12:45:44.011Z,100332.70
2019-01-09T12:48:14.119Z,100327.33
2019-01-09T12:53:13.002Z,100333.27
2019-01-09T12:55:42.898Z,100335.45
2019-01-09T12:58:12.411Z,100345.10
2019-01-09T13:00:42.282Z,100342.58
2019-01-09T13:03:11.786Z,100350.38
2019-01-09T13:05:41.570Z,100350.19
2019-01-09T13:08:11.345Z,100355.77
2019-01-09T13:10:41.469Z,100355.47
2019-01-09T13:13:11.281Z,100355.08
2019-01-09T13:15:41.014Z,100356.67
2019-01-09T13:18:10.827Z,100357.49
2019-01-09T13:20:40.331Z,100360.50
2019-01-09T13:23:10.183Z,100360.81
2019-01-09T13:25:39.700Z,100375.92
2019-01-09T13:28:09.227Z,100381.25
2019-01-09T13:30:40.533Z,100374.14
2019-01-09T13:33:10.064Z,100378.36
2019-01-09T13:35:39.649Z,100380.28
2019-01-09T13:38:09.464Z,100390.53
2019-01-09T13:40:39.264Z,100391.30
2019-01-09T13:43:09.055Z,100391.97
2019-01-09T13:45:38.910Z,100398.14
2019-01-09T13:48:08.789Z,100401.31
2019-01-09T13:50:39.545Z,100402.66
2019-01-09T13:53:09.380Z,100407.91
2019-01-09T13:55:39.465Z,100411.19
2019-01-09T13:58:09.262Z,100413.87
2019-01-09T14:00:38.760Z,100414.90
2019-01-09T14:03:08.359Z,100419.16
2019-01-09T14:05:38.084Z,100418.78
2019-01-09T14:08:09.392Z,100430.06
2019-01-09T14:10:38.860Z,100424.95
2019-01-09T14:13:08.404Z,100433.14
2019-01-09T14:15:37.908Z,100430.97
2019-01-09T14:18:07.744Z,100434.05
2019-01-09T14:20:37.689Z,100437.52
2019-01-09T14:23:07.305Z,100444.02
2019-01-09T14:25:37.119Z,100446.64
2019-01-09T14:28:06.684Z,100450.53
2019-01-09T14:30:36.532Z,100454.52
2019-01-09T14:33:06.066Z,100455.34
2019-01-09T14:35:35.599Z,100455.34
2019-01-09T14:38:05.254Z,100461.80
2019-01-09T14:40:34.774Z,100462.52
2019-01-09T14:43:05.249Z,100446.98
2019-01-09T14:45:34.757Z,100467.30
2019-01-09T14:48:04.260Z,100469.83
2019-01-09T14:50:34.180Z,100466.91
2019-01-09T14:53:03.705Z,100476.85
2019-01-09T14:55:34.232Z,100487.31
2019-01-09T14:58:03.760Z,100491.59
2019-01-09T15:00:33.530Z,100492.58
2019-01-09T15:03:03.515Z,100505.99
2019-01-09T15:05:32.987Z,100496.97
2019-01-09T15:08:02.605Z,100503.93
2019-01-09T15:10:32.421Z,100502.25
2019-01-09T15:13:02.110Z,100510.35
2019-01-09T15:15:31.767Z,100507.24
2019-01-09T15:18:01.689Z,100520.81
2019-01-09T15:20:31.215Z,100520.78
2019-01-09T15:23:01.039Z,100517.88
2019-01-09T15:25:30.546Z,100528.64
2019-01-09T15:28:00.126Z,100520.80
2019-01-09T15:30:30.877Z,100510.39
2019-01-09T15:33:00.805Z,100510.39
2019-01-09T15:35:30.395Z,100533.73
2019-01-09T15:38:00.208Z,100533.81
2019-01-09T15:40:31.101Z,100531.52
2019-01-09T15:43:00.720Z,100534.50
2019-01-09T15:45:30.279Z,100548.07
2019-01-09T15:47:59.795Z,100540.74
2019-01-09T15:50:29.758Z,100543.71
2019-01-09T15:52:59.476Z,100547.41
2019-01-09T15:55:28.946Z,100533.73
2019-01-09T15:57:59.095Z,100553.27
2019-01-09T16:00:38.461Z,100561.56
2019-01-09T16:03:08.370Z,100563.79
2019-01-09T16:05:37.958Z,100576.04
2019-01-09T16:08:08.799Z,100570.96
2019-01-09T16:10:38.635Z,100573.68
2019-01-09T16:13:08.147Z,100569.41
2019-01-09T16:15:37.818Z,100577.14
2019-01-09T16:18:07.360Z,100578.38
2019-01-09T16:20:36.931Z,100580.21
2019-01-09T16:23:06.851Z,100579.81
2019-01-09T16:25:37.726Z,100590.72
2019-01-09T16:28:07.628Z,100587.61
2019-01-09T16:30:44.215Z,100593.80
2019-01-09T16:33:13.705Z,100597.13
2019-01-09T16:35:43.496Z,100590.22
2019-01-09T16:38:13.105Z,100599.44
2019-01-09T16:40:43.002Z,100600.41
2019-01-09T16:43:12.815Z,100602.33
2019-01-09T16:45:42.337Z,100608.89
2019-01-09T16:48:12.492Z,100608.03
2019-01-09T16:50:41.988Z,100605.45
2019-01-09T16:53:11.813Z,100611.95
2019-01-09T16:55:41.603Z,100618.05
2019-01-09T16:58:11.108Z,100616.18
2019-01-09T17:00:40.877Z,100625.47
2019-01-09T17:03:10.403Z,100633.26
2019-01-09T17:05:40.214Z,100631.95
2019-01-09T17:08:09.842Z,100638.08
2019-01-09T17:10:39.436Z,100636.31
2019-01-09T17:13:08.923Z,100643.17
2019-01-09T17:15:39.600Z,100650.96
2019-01-09T17:18:09.441Z,100651.36
2019-01-09T17:20:39.253Z,100658.84
2019-01-09T17:23:08.861Z,100654.09
2019-01-09T17:25:38.681Z,100658.77
2019-01-09T17:28:08.302Z,100661.70
2019-01-09T17:30:37.903Z,100657.30
2019-01-09T17:33:08.146Z,100663.34
2019-01-09T17:35:37.688Z,100664.63
2019-01-09T17:38:07.666Z,100669.78
2019-01-09T17:40:41.257Z,100667.11
2019-01-09T17:43:09.360Z,100663.17
2019-01-09T17:45:39.262Z,100676.23
2019-01-09T17:48:08.891Z,100674.94
2019-01-09T17:50:38.779Z,100690.05
2019-01-09T17:53:08.691Z,100691.34
2019-01-09T17:55:38.235Z,100696.89
2019-01-09T17:58:07.858Z,100705.42
2019-01-09T18:00:39.590Z,100700.70
2019-01-09T18:03:09.128Z,100707.67
2019-01-09T18:05:38.609Z,100713.21
2019-01-09T18:08:10.833Z,100711.86
2019-01-09T18:10:39.689Z,100718.36
2019-01-09T18:13:09.498Z,100725.33
2019-01-09T18:15:39.063Z,100730.53
2019-01-09T18:18:08.673Z,100729.75
2019-01-09T18:20:38.292Z,100741.79
2019-01-09T18:23:08.419Z,100744.02
2019-01-09T18:25:38.047Z,100736.72
2019-01-09T18:28:07.662Z,100745.32
2019-01-09T18:30:53.508Z,100741.47
2019-01-09T18:33:37.832Z,100747.02
2019-01-09T18:36:36.588Z,100743.16
2019-01-09T18:39:53.858Z,100750.13
2019-01-09T18:43:10.376Z,100757.05
2019-01-09T18:46:02.674Z,100768.82
2019-01-09T18:49:10.027Z,100775.90
2019-01-09T18:52:10.553Z,100769.66
2019-01-09T18:54:40.425Z,100772.66
2019-01-09T18:57:10.927Z,100781.32
2019-01-09T18:59:40.411Z,100783.98
2019-01-09T19:02:10.349Z,100781.27
2019-01-09T19:04:40.215Z,100780.92
2019-01-09T19:07:09.832Z,100793.45
2019-01-09T19:09:39.821Z,100796.50
2019-01-09T19:12:09.679Z,100800.34
2019-01-09T19:14:39.533Z,100804.75
2019-01-09T19:17:09.087Z,100803.00
2019-01-09T19:19:39.018Z,100812.11
2019-01-09T19:22:08.654Z,100814.33
2019-01-09T19:24:38.486Z,100821.18
2019-01-09T19:27:08.350Z,100826.09
2019-01-09T19:29:38.630Z,100822.19
2019-01-09T19:32:08.584Z,100828.30
2019-01-09T19:34:38.098Z,100825.26
2019-01-09T19:37:07.788Z,100830.06
2019-01-09T19:39:37.294Z,100838.27
2019-01-09T19:42:07.057Z,100832.67
2019-01-09T19:44:36.796Z,100841.38
2019-01-09T19:47:06.461Z,100851.73
2019-01-09T19:49:36.306Z,100853.79
2019-01-09T19:52:05.946Z,100858.64
2019-01-09T19:54:35.561Z,100854.69
2019-01-09T19:57:05.278Z,100862.45
2019-01-09T19:59:34.801Z,100862.05
2019-01-09T20:02:04.717Z,100866.36
2019-01-09T20:04:34.360Z,100872.00
2019-01-09T20:07:04.359Z,100875.01
2019-01-09T20:09:34.934Z,100876.32
2019-01-09T20:12:05.009Z,100878.92
2019-01-09T20:14:34.935Z,100880.97
2019-01-09T20:17:06.457Z,100885.34
2019-01-09T20:19:36.654Z,100895.39
2019-01-09T20:22:06.261Z,100884.93
2019-01-09T20:24:36.233Z,100891.83
2019-01-09T20:27:06.541Z,100897.05
2019-01-09T20:29:36.130Z,100897.85
2019-01-09T20:32:05.895Z,100906.21
2019-01-09T20:34:35.890Z,100906.58
2019-01-09T20:37:05.917Z,100903.97
2019-01-09T20:39:35.420Z,100915.28
2019-01-09T20:42:04.970Z,100910.91
2019-01-09T20:44:35.037Z,100923.45
2019-01-09T20:47:04.985Z,100932.61
2019-01-09T20:49:34.589Z,100926.50
2019-01-09T20:52:05.275Z,100931.80
2019-01-09T20:54:34.906Z,100937.78
2019-01-09T20:57:06.866Z,100943.44
2019-01-09T20:59:36.882Z,100936.08
2019-01-09T21:02:06.511Z,100945.63
2019-01-09T21:04:36.366Z,100950.85
2019-01-09T21:07:06.104Z,100940.57
2019-01-09T21:09:35.609Z,100956.05
2019-01-09T21:12:08.292Z,100956.95
2019-01-09T21:14:38.143Z,100957.36
2019-01-09T21:17:07.663Z,100962.21
2019-01-09T21:19:37.156Z,100963.48
2019-01-09T21:22:07.014Z,100965.58
2019-01-09T21:24:36.781Z,100959.56
2019-01-09T21:27:06.514Z,100977.75
2019-01-09T21:29:36.323Z,100969.44
2019-01-09T21:32:05.884Z,100971.64
2019-01-09T21:34:35.739Z,100970.84
2019-01-09T21:37:05.624Z,100973.39
2019-01-09T21:39:35.439Z,100976.85
2019-01-09T21:42:05.301Z,100975.49
2019-01-09T21:44:34.898Z,100970.48
2019-01-09T21:47:04.820Z,100988.16
2019-01-09T21:49:34.632Z,100992.53
2019-01-09T21:52:04.304Z,100998.59
2019-01-09T21:54:33.848Z,101005.10
2019-01-09T21:57:03.779Z,101002.09
2019-01-09T21:59:33.631Z,101014.62
2019-01-09T22:02:03.251Z,101010.22
2019-01-09T22:04:32.825Z,101016.28
2019-01-09T22:07:02.459Z,101015.48
2019-01-09T22:09:31.979Z,101014.66
2019-01-09T22:12:02.599Z,101018.03
2019-01-09T22:14:32.527Z,101028.98
2019-01-09T22:17:02.021Z,101032.45
2019-01-09T22:19:31.519Z,100975.87
2019-01-09T22:22:01.415Z,101025.05
2019-01-09T22:24:31.304Z,101034.56
2019-01-09T22:27:01.118Z,101034.56
2019-01-09T22:29:30.606Z,101032.45
2019-01-09T22:32:00.644Z,101049.75
2019-01-09T22:34:30.251Z,101048.36
2019-01-09T22:37:00.683Z,101051.05
2019-01-09T22:39:30.318Z,101046.33
2019-01-09T22:41:59.789Z,101053.70
2019-01-09T22:44:29.483Z,101049.34
2019-01-09T22:47:00.175Z,101055.40
2019-01-09T22:49:29.683Z,101047.23
2019-01-09T22:51:59.328Z,101047.22
2019-01-09T22:54:36.185Z,101051.98
2019-01-09T22:57:00.337Z,101052.88
2019-01-09T22:59:29.868Z,101055.41
2019-01-09T23:01:59.441Z,101062.37
2019-01-09T23:04:29.254Z,101060.16
2019-01-09T23:06:58.775Z,101064.48
2019-01-09T23:09:28.296Z,101063.27
2019-01-09T23:11:58.158Z,101064.08
2019-01-09T23:14:27.716Z,101074.98
2019-01-09T23:16:57.239Z,101071.97
2019-01-09T23:19:26.847Z,101073.23
2019-01-09T23:21:56.396Z,101079.75
2019-01-09T23:24:25.903Z,101081.53
2019-01-09T23:26:55.424Z,101081.09
2019-01-09T23:29:25.213Z,101074.13
2019-01-09T23:31:55.166Z,101079.27
2019-01-09T23:34:24.648Z,101081.50
2019-01-09T23:36:54.500Z,101087.16
2019-01-09T23:39:24.674Z,101085.36
2019-01-09T23:41:54.831Z,101078.03
2019-01-09T23:44:24.908Z,101081.91
2019-01-09T23:46:54.918Z,101087.56
2019-01-09T23:49:25.174Z,101081.95
2019-01-09T23:51:55.188Z,101073.39
2019-01-09T23:54:24.785Z,101091.88
2019-01-09T23:56:55.217Z,101096.72
2019-01-09T23:59:25.532Z,101092.37
